sensor_id;sensor_type;location;lat;lon;timestamp;P1;durP1;ratioP1;P2;durP2;ratioP2
2976;SDS011;1498;51.500;7.440;2023-03-08T00:00:36;21.23;;;13.40;;
2976;SDS011;1498;51.500;7.440;2023-03-08T00:03:01;20.47;;;13.90;;
2976;SDS011;1498;51.500;7.440;2023-03-08T00:05:27;25.77;;;13.20;;
2976;SDS011;1498;51.500;7.440;2023-03-08T00:07:53;24.33;;;15.33;;
2976;SDS011;1498;51.500;7.440;2023-03-08T00:10:19;17.87;;;13.60;;
2976;SDS011;1498;51.500;7.440;2023-03-08T00:12:46;22.57;;;15.40;;
2976;SDS011;1498;51.500;7.440;2023-03-08T00:15:11;19.53;;;13.40;;
2976;SDS011;1498;51.500;7.440;2023-03-08T00:17:37;20.80;;;13.87;;
2976;SDS011;1498;51.500;7.440;2023-03-08T00:20:04;21.77;;;13.80;;
2976;SDS011;1498;51.500;7.440;2023-03-08T00:22:38;22.03;;;14.50;;
2976;SDS011;1498;51.500;7.440;2023-03-08T00:25:04;21.37;;;13.97;;
2976;SDS011;1498;51.500;7.440;2023-03-08T00:27:32;23.20;;;14.27;;
2976;SDS011;1498;51.500;7.440;2023-03-08T00:29:59;22.70;;;13.40;;
2976;SDS011;1498;51.500;7.440;2023-03-08T00:32:25;19.70;;;13.40;;
2976;SDS011;1498;51.500;7.440;2023-03-08T00:34:51;18.63;;;13.50;;
2976;SDS011;1498;51.500;7.440;2023-03-08T00:37:17;20.70;;;13.90;;
2976;SDS011;1498;51.500;7.440;2023-03-08T00:39:43;24.23;;;13.93;;
2976;SDS011;1498;51.500;7.440;2023-03-08T00:42:08;22.07;;;13.20;;
2976;SDS011;1498;51.500;7.440;2023-03-08T00:44:34;20.60;;;12.63;;
2976;SDS011;1498;51.500;7.440;2023-03-08T00:46:59;23.50;;;14.83;;
2976;SDS011;1498;51.500;7.440;2023-03-08T00:49:25;20.97;;;14.30;;
2976;SDS011;1498;51.500;7.440;2023-03-08T00:51:51;19.43;;;12.93;;
2976;SDS011;1498;51.500;7.440;2023-03-08T00:54:16;23.90;;;14.77;;
2976;SDS011;1498;51.500;7.440;2023-03-08T00:56:42;17.40;;;13.93;;
2976;SDS011;1498;51.500;7.440;2023-03-08T00:59:07;21.00;;;14.20;;
2976;SDS011;1498;51.500;7.440;2023-03-08T01:01:33;22.67;;;13.67;;
2976;SDS011;1498;51.500;7.440;2023-03-08T01:03:59;18.20;;;12.67;;
2976;SDS011;1498;51.500;7.440;2023-03-08T01:06:25;20.37;;;12.33;;
2976;SDS011;1498;51.500;7.440;2023-03-08T01:08:51;23.03;;;13.30;;
2976;SDS011;1498;51.500;7.440;2023-03-08T01:11:20;21.03;;;12.50;;
2976;SDS011;1498;51.500;7.440;2023-03-08T01:13:48;19.60;;;13.70;;
2976;SDS011;1498;51.500;7.440;2023-03-08T01:16:19;20.80;;;13.80;;
2976;SDS011;1498;51.500;7.440;2023-03-08T01:18:46;22.03;;;15.00;;
2976;SDS011;1498;51.500;7.440;2023-03-08T01:21:12;23.70;;;14.80;;
2976;SDS011;1498;51.500;7.440;2023-03-08T01:23:37;19.67;;;13.83;;
2976;SDS011;1498;51.500;7.440;2023-03-08T01:26:05;32.10;;;13.67;;
2976;SDS011;1498;51.500;7.440;2023-03-08T01:28:32;20.80;;;13.77;;
2976;SDS011;1498;51.500;7.440;2023-03-08T01:31:05;25.77;;;14.50;;
2976;SDS011;1498;51.500;7.440;2023-03-08T01:33:42;18.80;;;13.13;;
2976;SDS011;1498;51.500;7.440;2023-03-08T01:36:09;20.53;;;12.57;;
2976;SDS011;1498;51.500;7.440;2023-03-08T01:38:36;22.47;;;14.10;;
2976;SDS011;1498;51.500;7.440;2023-03-08T01:41:03;22.20;;;14.70;;
2976;SDS011;1498;51.500;7.440;2023-03-08T01:43:31;25.63;;;17.67;;
2976;SDS011;1498;51.500;7.440;2023-03-08T01:48:36;22.03;;;14.43;;
2976;SDS011;1498;51.500;7.440;2023-03-08T01:51:09;21.87;;;14.20;;
2976;SDS011;1498;51.500;7.440;2023-03-08T01:53:38;23.07;;;15.57;;
2976;SDS011;1498;51.500;7.440;2023-03-08T01:56:07;25.30;;;15.43;;
2976;SDS011;1498;51.500;7.440;2023-03-08T01:58:35;32.00;;;16.07;;
2976;SDS011;1498;51.500;7.440;2023-03-08T02:01:01;23.50;;;15.13;;
2976;SDS011;1498;51.500;7.440;2023-03-08T02:03:26;23.67;;;15.73;;
2976;SDS011;1498;51.500;7.440;2023-03-08T02:05:52;24.23;;;14.50;;
2976;SDS011;1498;51.500;7.440;2023-03-08T02:08:18;24.50;;;14.97;;
2976;SDS011;1498;51.500;7.440;2023-03-08T02:10:43;23.07;;;15.67;;
2976;SDS011;1498;51.500;7.440;2023-03-08T02:13:09;31.67;;;14.80;;
2976;SDS011;1498;51.500;7.440;2023-03-08T02:15:36;22.70;;;15.13;;
2976;SDS011;1498;51.500;7.440;2023-03-08T02:18:02;25.93;;;15.87;;
2976;SDS011;1498;51.500;7.440;2023-03-08T02:22:53;27.40;;;15.33;;
2976;SDS011;1498;51.500;7.440;2023-03-08T02:25:20;23.87;;;17.23;;
2976;SDS011;1498;51.500;7.440;2023-03-08T02:27:47;25.27;;;15.90;;
2976;SDS011;1498;51.500;7.440;2023-03-08T02:30:15;22.47;;;14.77;;
2976;SDS011;1498;51.500;7.440;2023-03-08T02:32:42;22.47;;;16.20;;
2976;SDS011;1498;51.500;7.440;2023-03-08T02:35:07;21.97;;;14.17;;
2976;SDS011;1498;51.500;7.440;2023-03-08T02:37:33;21.10;;;15.63;;
2976;SDS011;1498;51.500;7.440;2023-03-08T02:39:59;28.27;;;15.37;;
2976;SDS011;1498;51.500;7.440;2023-03-08T02:42:25;24.77;;;15.63;;
2976;SDS011;1498;51.500;7.440;2023-03-08T02:44:50;22.40;;;15.23;;
2976;SDS011;1498;51.500;7.440;2023-03-08T02:47:16;27.13;;;17.20;;
2976;SDS011;1498;51.500;7.440;2023-03-08T02:49:42;24.37;;;16.27;;
2976;SDS011;1498;51.500;7.440;2023-03-08T02:52:07;23.83;;;16.37;;
2976;SDS011;1498;51.500;7.440;2023-03-08T02:54:33;32.87;;;17.10;;
2976;SDS011;1498;51.500;7.440;2023-03-08T02:56:58;23.50;;;14.50;;
2976;SDS011;1498;51.500;7.440;2023-03-08T02:59:24;26.53;;;16.17;;
2976;SDS011;1498;51.500;7.440;2023-03-08T03:01:50;29.80;;;16.70;;
2976;SDS011;1498;51.500;7.440;2023-03-08T03:04:16;21.97;;;15.37;;
2976;SDS011;1498;51.500;7.440;2023-03-08T03:06:41;23.97;;;15.63;;
2976;SDS011;1498;51.500;7.440;2023-03-08T03:09:07;20.40;;;14.73;;
2976;SDS011;1498;51.500;7.440;2023-03-08T03:11:34;25.33;;;16.10;;
2976;SDS011;1498;51.500;7.440;2023-03-08T03:13:59;24.27;;;14.33;;
2976;SDS011;1498;51.500;7.440;2023-03-08T03:16:26;20.93;;;13.80;;
2976;SDS011;1498;51.500;7.440;2023-03-08T03:18:52;23.00;;;15.83;;
2976;SDS011;1498;51.500;7.440;2023-03-08T03:21:19;25.53;;;14.80;;
2976;SDS011;1498;51.500;7.440;2023-03-08T05:31:48;22.73;;;14.03;;
2976;SDS011;1498;51.500;7.440;2023-03-08T05:34:14;17.70;;;12.70;;
2976;SDS011;1498;51.500;7.440;2023-03-08T05:36:39;22.37;;;14.30;;
2976;SDS011;1498;51.500;7.440;2023-03-08T05:39:06;24.23;;;13.00;;
2976;SDS011;1498;51.500;7.440;2023-03-08T05:41:32;25.83;;;12.70;;
2976;SDS011;1498;51.500;7.440;2023-03-08T05:43:59;34.43;;;14.00;;
2976;SDS011;1498;51.500;7.440;2023-03-08T05:46:25;22.60;;;13.07;;
2976;SDS011;1498;51.500;7.440;2023-03-08T05:48:51;24.03;;;13.17;;
2976;SDS011;1498;51.500;7.440;2023-03-08T05:51:17;24.50;;;15.17;;
2976;SDS011;1498;51.500;7.440;2023-03-08T05:53:43;21.40;;;14.43;;
2976;SDS011;1498;51.500;7.440;2023-03-08T05:56:11;20.70;;;12.37;;
2976;SDS011;1498;51.500;7.440;2023-03-08T05:58:41;25.30;;;12.27;;
2976;SDS011;1498;51.500;7.440;2023-03-08T06:01:18;17.10;;;11.47;;
2976;SDS011;1498;51.500;7.440;2023-03-08T06:03:45;22.60;;;10.97;;
2976;SDS011;1498;51.500;7.440;2023-03-08T06:06:13;17.73;;;10.67;;
2976;SDS011;1498;51.500;7.440;2023-03-08T06:08:39;18.67;;;8.47;;
2976;SDS011;1498;51.500;7.440;2023-03-08T06:11:05;20.17;;;11.20;;
2976;SDS011;1498;51.500;7.440;2023-03-08T06:13:31;15.70;;;10.20;;
2976;SDS011;1498;51.500;7.440;2023-03-08T06:15:58;16.40;;;10.27;;
2976;SDS011;1498;51.500;7.440;2023-03-08T06:18:24;20.17;;;8.93;;
2976;SDS011;1498;51.500;7.440;2023-03-08T06:21:09;16.13;;;9.17;;
2976;SDS011;1498;51.500;7.440;2023-03-08T06:23:38;15.17;;;9.77;;
2976;SDS011;1498;51.500;7.440;2023-03-08T06:26:04;15.80;;;8.67;;
2976;SDS011;1498;51.500;7.440;2023-03-08T06:28:32;14.60;;;8.70;;
2976;SDS011;1498;51.500;7.440;2023-03-08T06:30:57;12.97;;;7.53;;
2976;SDS011;1498;51.500;7.440;2023-03-08T06:33:24;23.03;;;8.90;;
2976;SDS011;1498;51.500;7.440;2023-03-08T06:35:59;14.33;;;8.53;;
2976;SDS011;1498;51.500;7.440;2023-03-08T06:38:27;18.20;;;9.17;;
2976;SDS011;1498;51.500;7.440;2023-03-08T06:40:54;16.90;;;8.90;;
2976;SDS011;1498;51.500;7.440;2023-03-08T06:43:19;12.67;;;7.90;;
2976;SDS011;1498;51.500;7.440;2023-03-08T06:45:45;13.20;;;8.37;;
2976;SDS011;1498;51.500;7.440;2023-03-08T06:48:11;13.70;;;7.70;;
2976;SDS011;1498;51.500;7.440;2023-03-08T06:50:37;13.10;;;8.03;;
2976;SDS011;1498;51.500;7.440;2023-03-08T06:53:03;14.60;;;8.40;;
2976;SDS011;1498;51.500;7.440;2023-03-08T06:55:28;12.93;;;7.47;;
2976;SDS011;1498;51.500;7.440;2023-03-08T06:57:54;14.97;;;7.50;;
2976;SDS011;1498;51.500;7.440;2023-03-08T07:00:19;9.77;;;5.70;;
2976;SDS011;1498;51.500;7.440;2023-03-08T07:02:46;8.13;;;6.03;;
2976;SDS011;1498;51.500;7.440;2023-03-08T07:05:13;8.60;;;5.07;;
2976;SDS011;1498;51.500;7.440;2023-03-08T07:07:40;7.90;;;4.60;;
2976;SDS011;1498;51.500;7.440;2023-03-08T07:10:08;11.20;;;4.90;;
2976;SDS011;1498;51.500;7.440;2023-03-08T07:12:35;4.13;;;3.03;;
2976;SDS011;1498;51.500;7.440;2023-03-08T07:15:07;8.50;;;2.70;;
2976;SDS011;1498;51.500;7.440;2023-03-08T07:17:34;5.70;;;2.97;;
2976;SDS011;1498;51.500;7.440;2023-03-08T07:20:00;4.90;;;3.10;;
2976;SDS011;1498;51.500;7.440;2023-03-08T07:22:29;6.70;;;3.10;;
2976;SDS011;1498;51.500;7.440;2023-03-08T07:24:55;8.97;;;3.30;;
2976;SDS011;1498;51.500;7.440;2023-03-08T07:27:21;3.77;;;2.53;;
2976;SDS011;1498;51.500;7.440;2023-03-08T07:29:46;3.70;;;2.50;;
2976;SDS011;1498;51.500;7.440;2023-03-08T07:32:12;5.77;;;3.30;;
2976;SDS011;1498;51.500;7.440;2023-03-08T07:34:37;3.87;;;2.93;;
2976;SDS011;1498;51.500;7.440;2023-03-08T07:37:03;7.20;;;3.60;;
2976;SDS011;1498;51.500;7.440;2023-03-08T07:39:28;4.53;;;2.87;;
2976;SDS011;1498;51.500;7.440;2023-03-08T07:41:54;2.80;;;2.60;;
2976;SDS011;1498;51.500;7.440;2023-03-08T07:44:20;3.80;;;2.63;;
2976;SDS011;1498;51.500;7.440;2023-03-08T07:46:45;4.77;;;2.47;;
2976;SDS011;1498;51.500;7.440;2023-03-08T07:49:11;4.07;;;2.57;;
2976;SDS011;1498;51.500;7.440;2023-03-08T07:51:36;4.53;;;2.30;;
2976;SDS011;1498;51.500;7.440;2023-03-08T07:54:02;3.10;;;2.40;;
2976;SDS011;1498;51.500;7.440;2023-03-08T07:56:28;4.43;;;3.07;;
2976;SDS011;1498;51.500;7.440;2023-03-08T07:58:56;3.40;;;2.50;;
2976;SDS011;1498;51.500;7.440;2023-03-08T08:01:22;3.93;;;2.53;;
2976;SDS011;1498;51.500;7.440;2023-03-08T08:03:48;5.20;;;2.57;;
2976;SDS011;1498;51.500;7.440;2023-03-08T08:06:14;2.20;;;2.00;;
2976;SDS011;1498;51.500;7.440;2023-03-08T08:08:40;3.23;;;2.43;;
2976;SDS011;1498;51.500;7.440;2023-03-08T08:11:13;3.23;;;2.07;;
2976;SDS011;1498;51.500;7.440;2023-03-08T08:13:40;2.63;;;2.00;;
2976;SDS011;1498;51.500;7.440;2023-03-08T08:16:05;2.60;;;1.97;;
2976;SDS011;1498;51.500;7.440;2023-03-08T08:18:32;2.67;;;2.03;;
2976;SDS011;1498;51.500;7.440;2023-03-08T08:21:04;3.70;;;1.87;;
2976;SDS011;1498;51.500;7.440;2023-03-08T08:23:32;2.53;;;2.33;;
2976;SDS011;1498;51.500;7.440;2023-03-08T08:25:58;6.80;;;2.07;;
2976;SDS011;1498;51.500;7.440;2023-03-08T08:28:24;3.63;;;2.33;;
2976;SDS011;1498;51.500;7.440;2023-03-08T08:30:57;3.17;;;2.23;;
2976;SDS011;1498;51.500;7.440;2023-03-08T08:33:25;3.50;;;2.30;;
2976;SDS011;1498;51.500;7.440;2023-03-08T08:35:51;3.20;;;2.70;;
2976;SDS011;1498;51.500;7.440;2023-03-08T08:38:17;2.57;;;1.80;;
2976;SDS011;1498;51.500;7.440;2023-03-08T08:40:43;5.70;;;2.33;;
2976;SDS011;1498;51.500;7.440;2023-03-08T08:43:08;2.90;;;2.03;;
2976;SDS011;1498;51.500;7.440;2023-03-08T08:45:34;5.93;;;2.70;;
2976;SDS011;1498;51.500;7.440;2023-03-08T08:47:59;4.73;;;2.50;;
2976;SDS011;1498;51.500;7.440;2023-03-08T08:50:25;6.23;;;2.10;;
2976;SDS011;1498;51.500;7.440;2023-03-08T08:52:50;2.60;;;1.90;;
2976;SDS011;1498;51.500;7.440;2023-03-08T08:55:16;3.57;;;2.30;;
2976;SDS011;1498;51.500;7.440;2023-03-08T08:57:41;3.80;;;2.10;;
2976;SDS011;1498;51.500;7.440;2023-03-08T09:00:07;4.47;;;1.90;;
2976;SDS011;1498;51.500;7.440;2023-03-08T09:02:36;1.87;;;1.70;;
2976;SDS011;1498;51.500;7.440;2023-03-08T09:05:01;2.40;;;1.73;;
2976;SDS011;1498;51.500;7.440;2023-03-08T09:07:27;4.33;;;1.77;;
2976;SDS011;1498;51.500;7.440;2023-03-08T09:09:53;2.72;;;1.70;;
2976;SDS011;1498;51.500;7.440;2023-03-08T09:12:19;5.70;;;3.03;;
2976;SDS011;1498;51.500;7.440;2023-03-08T09:14:45;2.37;;;1.90;;
2976;SDS011;1498;51.500;7.440;2023-03-08T09:17:10;2.23;;;2.03;;
2976;SDS011;1498;51.500;7.440;2023-03-08T09:19:36;2.80;;;1.93;;
2976;SDS011;1498;51.500;7.440;2023-03-08T09:22:02;1.90;;;1.53;;
2976;SDS011;1498;51.500;7.440;2023-03-08T09:24:28;1.80;;;1.60;;
2976;SDS011;1498;51.500;7.440;2023-03-08T09:26:53;4.13;;;1.90;;
2976;SDS011;1498;51.500;7.440;2023-03-08T09:29:19;2.10;;;1.90;;
2976;SDS011;1498;51.500;7.440;2023-03-08T09:31:44;1.80;;;1.70;;
2976;SDS011;1498;51.500;7.440;2023-03-08T09:34:11;3.97;;;2.10;;
2976;SDS011;1498;51.500;7.440;2023-03-08T09:36:38;1.60;;;1.40;;
2976;SDS011;1498;51.500;7.440;2023-03-08T09:39:05;4.10;;;2.03;;
2976;SDS011;1498;51.500;7.440;2023-03-08T09:41:40;1.90;;;1.80;;
2976;SDS011;1498;51.500;7.440;2023-03-08T09:44:20;1.80;;;1.70;;
2976;SDS011;1498;51.500;7.440;2023-03-08T09:49:27;2.37;;;2.13;;
2976;SDS011;1498;51.500;7.440;2023-03-08T09:52:07;1.70;;;1.60;;
2976;SDS011;1498;51.500;7.440;2023-03-08T09:54:40;3.63;;;1.83;;
2976;SDS011;1498;51.500;7.440;2023-03-08T09:57:09;5.27;;;2.10;;
2976;SDS011;1498;51.500;7.440;2023-03-08T09:59:43;3.80;;;1.43;;
2976;SDS011;1498;51.500;7.440;2023-03-08T10:10:47;2.17;;;1.83;;
2976;SDS011;1498;51.500;7.440;2023-03-08T10:13:41;2.63;;;2.37;;
2976;SDS011;1498;51.500;7.440;2023-03-08T10:16:18;2.97;;;2.07;;
2976;SDS011;1498;51.500;7.440;2023-03-08T10:21:29;3.10;;;2.03;;
2976;SDS011;1498;51.500;7.440;2023-03-08T10:26:31;2.57;;;2.13;;
2976;SDS011;1498;51.500;7.440;2023-03-08T10:28:57;2.83;;;1.80;;
2976;SDS011;1498;51.500;7.440;2023-03-08T10:33:56;5.33;;;2.10;;
2976;SDS011;1498;51.500;7.440;2023-03-08T10:39:21;3.03;;;2.27;;
2976;SDS011;1498;51.500;7.440;2023-03-08T10:41:48;2.10;;;1.90;;
2976;SDS011;1498;51.500;7.440;2023-03-08T10:44:30;2.30;;;2.00;;
2976;SDS011;1498;51.500;7.440;2023-03-08T10:46:57;1.80;;;1.70;;
2976;SDS011;1498;51.500;7.440;2023-03-08T10:49:23;2.47;;;1.73;;
2976;SDS011;1498;51.500;7.440;2023-03-08T10:51:50;2.23;;;2.03;;
2976;SDS011;1498;51.500;7.440;2023-03-08T10:54:23;1.77;;;1.67;;
2976;SDS011;1498;51.500;7.440;2023-03-08T10:59:51;1.83;;;1.60;;
2976;SDS011;1498;51.500;7.440;2023-03-08T11:04:50;3.70;;;1.67;;
2976;SDS011;1498;51.500;7.440;2023-03-08T11:07:20;2.20;;;1.70;;
2976;SDS011;1498;51.500;7.440;2023-03-08T11:09:51;2.50;;;1.60;;
2976;SDS011;1498;51.500;7.440;2023-03-08T11:12:27;3.20;;;2.27;;
2976;SDS011;1498;51.500;7.440;2023-03-08T11:14:53;2.00;;;1.90;;
2976;SDS011;1498;51.500;7.440;2023-03-08T11:17:22;6.23;;;1.90;;
2976;SDS011;1498;51.500;7.440;2023-03-08T11:25:43;1.80;;;1.70;;
2976;SDS011;1498;51.500;7.440;2023-03-08T11:28:14;2.40;;;2.20;;
2976;SDS011;1498;51.500;7.440;2023-03-08T11:36:31;2.23;;;2.03;;
2976;SDS011;1498;51.500;7.440;2023-03-08T11:39:27;2.67;;;2.30;;
2976;SDS011;1498;51.500;7.440;2023-03-08T11:53:12;3.20;;;2.60;;
2976;SDS011;1498;51.500;7.440;2023-03-08T11:55:54;3.07;;;2.80;;
2976;SDS011;1498;51.500;7.440;2023-03-08T11:58:38;2.57;;;2.03;;
2976;SDS011;1498;51.500;7.440;2023-03-08T12:01:23;3.07;;;2.40;;
2976;SDS011;1498;51.500;7.440;2023-03-08T12:03:54;3.03;;;2.27;;
2976;SDS011;1498;51.500;7.440;2023-03-08T12:06:28;4.60;;;2.57;;
2976;SDS011;1498;51.500;7.440;2023-03-08T12:11:48;2.53;;;2.33;;
2976;SDS011;1498;51.500;7.440;2023-03-08T12:14:18;3.53;;;3.23;;
2976;SDS011;1498;51.500;7.440;2023-03-08T12:16:53;2.77;;;2.37;;
2976;SDS011;1498;51.500;7.440;2023-03-08T12:19:31;3.23;;;2.10;;
2976;SDS011;1498;51.500;7.440;2023-03-08T12:33:12;3.20;;;2.50;;
2976;SDS011;1498;51.500;7.440;2023-03-08T12:35:49;4.90;;;3.97;;
2976;SDS011;1498;51.500;7.440;2023-03-08T12:40:47;3.37;;;2.97;;
2976;SDS011;1498;51.500;7.440;2023-03-08T12:43:15;3.27;;;2.93;;
2976;SDS011;1498;51.500;7.440;2023-03-08T12:56:19;3.60;;;3.00;;
2976;SDS011;1498;51.500;7.440;2023-03-08T13:10:33;3.37;;;3.07;;
2976;SDS011;1498;51.500;7.440;2023-03-08T13:15:36;5.77;;;3.60;;
2976;SDS011;1498;51.500;7.440;2023-03-08T13:18:10;3.40;;;3.10;;
2976;SDS011;1498;51.500;7.440;2023-03-08T13:28:34;6.00;;;3.63;;
2976;SDS011;1498;51.500;7.440;2023-03-08T13:31:03;5.03;;;4.03;;
2976;SDS011;1498;51.500;7.440;2023-03-08T13:33:44;4.07;;;3.60;;
2976;SDS011;1498;51.500;7.440;2023-03-08T13:36:21;4.27;;;3.93;;
2976;SDS011;1498;51.500;7.440;2023-03-08T13:39:00;4.63;;;4.20;;
2976;SDS011;1498;51.500;7.440;2023-03-08T13:44:13;8.10;;;4.93;;
2976;SDS011;1498;51.500;7.440;2023-03-08T13:46:41;4.60;;;4.20;;
